sensor_id;sensor_type;location;lat;lon;timestamp;P1;durP1;ratioP1;P2;durP2;ratioP2
8895;SDS011;4484;48.928;10.066;2023-04-29T00:00:44;8.60;;;6.77;;
8895;SDS011;4484;48.928;10.066;2023-04-29T00:03:11;8.87;;;6.70;;
8895;SDS011;4484;48.928;10.066;2023-04-29T00:05:38;7.77;;;6.07;;
8895;SDS011;4484;48.928;10.066;2023-04-29T00:08:05;11.83;;;8.63;;
8895;SDS011;4484;48.928;10.066;2023-04-29T00:10:32;8.57;;;7.67;;
8895;SDS011;4484;48.928;10.066;2023-04-29T00:12:59;10.20;;;7.70;;
8895;SDS011;4484;48.928;10.066;2023-04-29T00:15:26;9.13;;;7.17;;
8895;SDS011;4484;48.928;10.066;2023-04-29T00:17:53;8.77;;;7.30;;
8895;SDS011;4484;48.928;10.066;2023-04-29T00:20:20;7.50;;;5.10;;
8895;SDS011;4484;48.928;10.066;2023-04-29T00:22:47;6.60;;;5.73;;
8895;SDS011;4484;48.928;10.066;2023-04-29T00:25:14;7.27;;;5.60;;
8895;SDS011;4484;48.928;10.066;2023-04-29T00:27:42;5.90;;;5.17;;
8895;SDS011;4484;48.928;10.066;2023-04-29T00:30:09;5.70;;;5.03;;
8895;SDS011;4484;48.928;10.066;2023-04-29T00:32:36;5.90;;;4.70;;
8895;SDS011;4484;48.928;10.066;2023-04-29T00:35:03;7.87;;;5.43;;
8895;SDS011;4484;48.928;10.066;2023-04-29T00:37:30;8.20;;;5.13;;
8895;SDS011;4484;48.928;10.066;2023-04-29T00:39:57;6.03;;;5.10;;
8895;SDS011;4484;48.928;10.066;2023-04-29T00:42:25;7.27;;;5.30;;
8895;SDS011;4484;48.928;10.066;2023-04-29T00:44:52;5.53;;;4.40;;
8895;SDS011;4484;48.928;10.066;2023-04-29T00:47:19;4.40;;;4.00;;
8895;SDS011;4484;48.928;10.066;2023-04-29T00:49:46;5.53;;;3.80;;
8895;SDS011;4484;48.928;10.066;2023-04-29T00:52:13;4.50;;;4.10;;
8895;SDS011;4484;48.928;10.066;2023-04-29T00:54:40;7.40;;;4.67;;
8895;SDS011;4484;48.928;10.066;2023-04-29T00:57:07;4.93;;;4.20;;
8895;SDS011;4484;48.928;10.066;2023-04-29T00:59:34;5.93;;;4.53;;
8895;SDS011;4484;48.928;10.066;2023-04-29T01:02:02;5.00;;;4.07;;
8895;SDS011;4484;48.928;10.066;2023-04-29T01:04:30;8.07;;;5.73;;
8895;SDS011;4484;48.928;10.066;2023-04-29T01:07:00;8.27;;;5.20;;
8895;SDS011;4484;48.928;10.066;2023-04-29T01:17:59;4.87;;;4.10;;
8895;SDS011;4484;48.928;10.066;2023-04-29T01:20:30;5.80;;;4.93;;
8895;SDS011;4484;48.928;10.066;2023-04-29T01:22:59;5.50;;;4.90;;
8895;SDS011;4484;48.928;10.066;2023-04-29T01:25:26;8.10;;;4.60;;
8895;SDS011;4484;48.928;10.066;2023-04-29T01:28:13;7.73;;;5.20;;
8895;SDS011;4484;48.928;10.066;2023-04-29T01:33:40;56.57;;;6.57;;
8895;SDS011;4484;48.928;10.066;2023-04-29T01:38:51;183.43;;;9.90;;
8895;SDS011;4484;48.928;10.066;2023-04-29T01:43:59;29.63;;;5.57;;
8895;SDS011;4484;48.928;10.066;2023-04-29T01:46:29;22.10;;;5.13;;
8895;SDS011;4484;48.928;10.066;2023-04-29T01:48:57;47.43;;;5.23;;
8895;SDS011;4484;48.928;10.066;2023-04-29T01:51:24;67.27;;;7.23;;
8895;SDS011;4484;48.928;10.066;2023-04-29T01:53:51;14.60;;;5.10;;
8895;SDS011;4484;48.928;10.066;2023-04-29T01:56:17;42.63;;;5.37;;
8895;SDS011;4484;48.928;10.066;2023-04-29T01:58:56;7.50;;;4.10;;
8895;SDS011;4484;48.928;10.066;2023-04-29T02:01:32;15.70;;;4.43;;
8895;SDS011;4484;48.928;10.066;2023-04-29T02:04:00;14.30;;;4.00;;
8895;SDS011;4484;48.928;10.066;2023-04-29T02:06:27;4.07;;;3.67;;
8895;SDS011;4484;48.928;10.066;2023-04-29T02:08:57;18.30;;;5.93;;
8895;SDS011;4484;48.928;10.066;2023-04-29T02:11:24;6.07;;;4.80;;
8895;SDS011;4484;48.928;10.066;2023-04-29T02:13:54;4.63;;;4.23;;
8895;SDS011;4484;48.928;10.066;2023-04-29T02:16:21;6.17;;;5.67;;
8895;SDS011;4484;48.928;10.066;2023-04-29T02:18:55;6.50;;;5.70;;
8895;SDS011;4484;48.928;10.066;2023-04-29T02:21:22;8.37;;;5.37;;
8895;SDS011;4484;48.928;10.066;2023-04-29T02:23:49;23.47;;;5.77;;
8895;SDS011;4484;48.928;10.066;2023-04-29T02:26:16;5.63;;;5.03;;
8895;SDS011;4484;48.928;10.066;2023-04-29T02:28:43;25.90;;;6.97;;
8895;SDS011;4484;48.928;10.066;2023-04-29T02:31:10;18.27;;;6.53;;
8895;SDS011;4484;48.928;10.066;2023-04-29T02:33:38;7.10;;;6.03;;
8895;SDS011;4484;48.928;10.066;2023-04-29T02:36:07;6.80;;;6.10;;
8895;SDS011;4484;48.928;10.066;2023-04-29T02:38:34;7.80;;;6.87;;
8895;SDS011;4484;48.928;10.066;2023-04-29T02:41:01;7.10;;;5.90;;
8895;SDS011;4484;48.928;10.066;2023-04-29T02:43:28;7.23;;;6.23;;
8895;SDS011;4484;48.928;10.066;2023-04-29T02:45:57;6.90;;;6.20;;
8895;SDS011;4484;48.928;10.066;2023-04-29T02:48:24;7.40;;;5.93;;
8895;SDS011;4484;48.928;10.066;2023-04-29T02:50:50;6.30;;;5.70;;
8895;SDS011;4484;48.928;10.066;2023-04-29T02:53:18;7.37;;;6.67;;
8895;SDS011;4484;48.928;10.066;2023-04-29T02:55:46;8.17;;;6.90;;
8895;SDS011;4484;48.928;10.066;2023-04-29T02:58:13;7.63;;;6.47;;
8895;SDS011;4484;48.928;10.066;2023-04-29T03:00:40;8.73;;;6.70;;
8895;SDS011;4484;48.928;10.066;2023-04-29T03:03:07;7.07;;;6.37;;
8895;SDS011;4484;48.928;10.066;2023-04-29T03:05:35;7.37;;;6.40;;
8895;SDS011;4484;48.928;10.066;2023-04-29T03:08:02;9.47;;;6.80;;
8895;SDS011;4484;48.928;10.066;2023-04-29T03:10:30;7.73;;;6.93;;
8895;SDS011;4484;48.928;10.066;2023-04-29T03:12:57;7.40;;;6.70;;
8895;SDS011;4484;48.928;10.066;2023-04-29T03:15:24;11.27;;;7.47;;
8895;SDS011;4484;48.928;10.066;2023-04-29T03:17:51;7.63;;;6.43;;
8895;SDS011;4484;48.928;10.066;2023-04-29T03:20:18;7.87;;;6.73;;
8895;SDS011;4484;48.928;10.066;2023-04-29T03:22:46;7.80;;;6.60;;
8895;SDS011;4484;48.928;10.066;2023-04-29T03:25:13;6.30;;;5.70;;
8895;SDS011;4484;48.928;10.066;2023-04-29T03:27:40;7.10;;;6.40;;
8895;SDS011;4484;48.928;10.066;2023-04-29T03:30:08;7.47;;;6.60;;
8895;SDS011;4484;48.928;10.066;2023-04-29T03:32:41;6.70;;;6.00;;
8895;SDS011;4484;48.928;10.066;2023-04-29T03:35:08;34.23;;;7.67;;
8895;SDS011;4484;48.928;10.066;2023-04-29T03:37:59;9.40;;;6.13;;
8895;SDS011;4484;48.928;10.066;2023-04-29T03:40:29;7.00;;;6.27;;
8895;SDS011;4484;48.928;10.066;2023-04-29T03:42:56;8.03;;;5.20;;
8895;SDS011;4484;48.928;10.066;2023-04-29T03:45:23;8.57;;;5.83;;
8895;SDS011;4484;48.928;10.066;2023-04-29T03:47:50;5.33;;;4.83;;
8895;SDS011;4484;48.928;10.066;2023-04-29T03:50:18;4.93;;;4.47;;
8895;SDS011;4484;48.928;10.066;2023-04-29T03:52:46;4.83;;;4.33;;
8895;SDS011;4484;48.928;10.066;2023-04-29T03:55:15;6.40;;;5.63;;
8895;SDS011;4484;48.928;10.066;2023-04-29T03:57:43;14.97;;;6.90;;
8895;SDS011;4484;48.928;10.066;2023-04-29T04:00:12;6.97;;;6.30;;
8895;SDS011;4484;48.928;10.066;2023-04-29T04:02:41;7.13;;;5.20;;
8895;SDS011;4484;48.928;10.066;2023-04-29T04:05:09;23.70;;;5.47;;
8895;SDS011;4484;48.928;10.066;2023-04-29T04:07:39;4.87;;;4.37;;
8895;SDS011;4484;48.928;10.066;2023-04-29T04:10:24;5.13;;;4.63;;
8895;SDS011;4484;48.928;10.066;2023-04-29T04:12:54;10.33;;;4.67;;
8895;SDS011;4484;48.928;10.066;2023-04-29T04:15:21;4.83;;;4.40;;
8895;SDS011;4484;48.928;10.066;2023-04-29T04:17:48;4.30;;;3.90;;
8895;SDS011;4484;48.928;10.066;2023-04-29T04:20:16;10.03;;;3.70;;
8895;SDS011;4484;48.928;10.066;2023-04-29T04:22:43;3.30;;;3.00;;
8895;SDS011;4484;48.928;10.066;2023-04-29T04:25:21;23.00;;;4.97;;
8895;SDS011;4484;48.928;10.066;2023-04-29T04:27:49;4.13;;;3.83;;
8895;SDS011;4484;48.928;10.066;2023-04-29T04:30:36;4.43;;;4.03;;
8895;SDS011;4484;48.928;10.066;2023-04-29T04:33:03;13.80;;;4.40;;
8895;SDS011;4484;48.928;10.066;2023-04-29T04:35:30;3.90;;;3.60;;
8895;SDS011;4484;48.928;10.066;2023-04-29T04:37:57;3.40;;;3.10;;
8895;SDS011;4484;48.928;10.066;2023-04-29T04:40:24;21.80;;;4.40;;
8895;SDS011;4484;48.928;10.066;2023-04-29T04:43:21;3.70;;;3.40;;
8895;SDS011;4484;48.928;10.066;2023-04-29T04:45:48;5.33;;;4.40;;
8895;SDS011;4484;48.928;10.066;2023-04-29T04:48:15;4.67;;;3.83;;
8895;SDS011;4484;48.928;10.066;2023-04-29T04:50:44;4.60;;;4.00;;
8895;SDS011;4484;48.928;10.066;2023-04-29T04:53:10;5.00;;;4.40;;
8895;SDS011;4484;48.928;10.066;2023-04-29T04:55:53;3.73;;;3.23;;
8895;SDS011;4484;48.928;10.066;2023-04-29T04:58:20;4.07;;;3.67;;
8895;SDS011;4484;48.928;10.066;2023-04-29T05:00:47;4.50;;;4.07;;
8895;SDS011;4484;48.928;10.066;2023-04-29T05:03:14;3.27;;;2.97;;
8895;SDS011;4484;48.928;10.066;2023-04-29T05:05:42;4.97;;;4.30;;
8895;SDS011;4484;48.928;10.066;2023-04-29T05:08:09;7.07;;;5.93;;
8895;SDS011;4484;48.928;10.066;2023-04-29T05:10:41;6.60;;;5.53;;
8895;SDS011;4484;48.928;10.066;2023-04-29T05:13:10;5.10;;;4.60;;
8895;SDS011;4484;48.928;10.066;2023-04-29T05:15:38;6.07;;;5.23;;
8895;SDS011;4484;48.928;10.066;2023-04-29T05:18:07;5.23;;;4.70;;
8895;SDS011;4484;48.928;10.066;2023-04-29T05:20:34;7.10;;;6.40;;
8895;SDS011;4484;48.928;10.066;2023-04-29T05:23:01;10.20;;;7.87;;
8895;SDS011;4484;48.928;10.066;2023-04-29T05:25:33;10.37;;;8.03;;
8895;SDS011;4484;48.928;10.066;2023-04-29T05:28:01;10.73;;;7.30;;
8895;SDS011;4484;48.928;10.066;2023-04-29T05:30:31;9.93;;;7.43;;
8895;SDS011;4484;48.928;10.066;2023-04-29T05:32:58;8.90;;;7.67;;
8895;SDS011;4484;48.928;10.066;2023-04-29T05:35:26;8.97;;;8.00;;
8895;SDS011;4484;48.928;10.066;2023-04-29T05:37:53;9.90;;;8.30;;
8895;SDS011;4484;48.928;10.066;2023-04-29T05:40:32;10.37;;;8.60;;
8895;SDS011;4484;48.928;10.066;2023-04-29T05:43:23;9.47;;;8.13;;
8895;SDS011;4484;48.928;10.066;2023-04-29T05:45:51;8.93;;;7.93;;
8895;SDS011;4484;48.928;10.066;2023-04-29T05:48:18;9.97;;;8.83;;
8895;SDS011;4484;48.928;10.066;2023-04-29T05:50:45;9.37;;;7.50;;
8895;SDS011;4484;48.928;10.066;2023-04-29T05:53:13;10.67;;;8.27;;
8895;SDS011;4484;48.928;10.066;2023-04-29T05:55:41;9.00;;;8.10;;
8895;SDS011;4484;48.928;10.066;2023-04-29T05:58:10;10.40;;;8.20;;
8895;SDS011;4484;48.928;10.066;2023-04-29T06:00:38;9.37;;;7.70;;
8895;SDS011;4484;48.928;10.066;2023-04-29T06:03:11;10.20;;;9.10;;
8895;SDS011;4484;48.928;10.066;2023-04-29T06:05:39;8.53;;;7.57;;
8895;SDS011;4484;48.928;10.066;2023-04-29T06:08:16;10.67;;;9.53;;
8895;SDS011;4484;48.928;10.066;2023-04-29T06:10:45;12.03;;;9.30;;
8895;SDS011;4484;48.928;10.066;2023-04-29T06:13:12;13.00;;;9.90;;
8895;SDS011;4484;48.928;10.066;2023-04-29T06:15:39;13.30;;;9.57;;
8895;SDS011;4484;48.928;10.066;2023-04-29T06:18:06;10.00;;;9.00;;
8895;SDS011;4484;48.928;10.066;2023-04-29T06:20:32;11.47;;;7.53;;
8895;SDS011;4484;48.928;10.066;2023-04-29T06:23:02;9.00;;;8.07;;
8895;SDS011;4484;48.928;10.066;2023-04-29T06:25:30;8.00;;;7.20;;
8895;SDS011;4484;48.928;10.066;2023-04-29T06:28:00;10.17;;;7.77;;
8895;SDS011;4484;48.928;10.066;2023-04-29T06:30:28;9.67;;;6.80;;
8895;SDS011;4484;48.928;10.066;2023-04-29T06:32:55;7.97;;;7.17;;
8895;SDS011;4484;48.928;10.066;2023-04-29T06:35:23;7.50;;;6.80;;
8895;SDS011;4484;48.928;10.066;2023-04-29T06:38:08;7.57;;;6.87;;
8895;SDS011;4484;48.928;10.066;2023-04-29T06:40:49;7.00;;;6.30;;
8895;SDS011;4484;48.928;10.066;2023-04-29T06:43:40;8.27;;;6.30;;
8895;SDS011;4484;48.928;10.066;2023-04-29T06:46:26;6.43;;;5.83;;
8895;SDS011;4484;48.928;10.066;2023-04-29T06:49:14;6.97;;;6.27;;
8895;SDS011;4484;48.928;10.066;2023-04-29T06:51:41;7.30;;;6.60;;
8895;SDS011;4484;48.928;10.066;2023-04-29T06:54:08;5.80;;;5.30;;
8895;SDS011;4484;48.928;10.066;2023-04-29T06:56:35;5.60;;;5.10;;
8895;SDS011;4484;48.928;10.066;2023-04-29T06:59:02;4.73;;;4.33;;
8895;SDS011;4484;48.928;10.066;2023-04-29T07:01:29;4.63;;;3.90;;
8895;SDS011;4484;48.928;10.066;2023-04-29T07:03:56;5.03;;;4.53;;
8895;SDS011;4484;48.928;10.066;2023-04-29T07:06:23;4.70;;;4.17;;
8895;SDS011;4484;48.928;10.066;2023-04-29T07:08:50;4.60;;;4.20;;
8895;SDS011;4484;48.928;10.066;2023-04-29T07:11:20;7.30;;;3.97;;
8895;SDS011;4484;48.928;10.066;2023-04-29T07:13:51;4.70;;;3.80;;
8895;SDS011;4484;48.928;10.066;2023-04-29T07:16:19;3.43;;;3.10;;
8895;SDS011;4484;48.928;10.066;2023-04-29T07:18:47;3.47;;;3.17;;
8895;SDS011;4484;48.928;10.066;2023-04-29T07:21:14;3.07;;;2.87;;
8895;SDS011;4484;48.928;10.066;2023-04-29T07:23:41;3.50;;;3.00;;
8895;SDS011;4484;48.928;10.066;2023-04-29T07:26:12;4.23;;;2.93;;
8895;SDS011;4484;48.928;10.066;2023-04-29T07:28:43;4.77;;;2.40;;
8895;SDS011;4484;48.928;10.066;2023-04-29T07:31:10;2.60;;;2.40;;
8895;SDS011;4484;48.928;10.066;2023-04-29T07:33:37;2.50;;;2.20;;
8895;SDS011;4484;48.928;10.066;2023-04-29T07:36:04;2.40;;;2.10;;
8895;SDS011;4484;48.928;10.066;2023-04-29T07:38:32;3.97;;;2.13;;
8895;SDS011;4484;48.928;10.066;2023-04-29T07:41:00;4.90;;;2.20;;
8895;SDS011;4484;48.928;10.066;2023-04-29T07:43:27;3.23;;;2.10;;
8895;SDS011;4484;48.928;10.066;2023-04-29T07:45:54;2.90;;;2.13;;
8895;SDS011;4484;48.928;10.066;2023-04-29T07:48:21;2.47;;;2.27;;
8895;SDS011;4484;48.928;10.066;2023-04-29T07:50:48;3.20;;;2.37;;
8895;SDS011;4484;48.928;10.066;2023-04-29T07:53:15;2.77;;;2.10;;
8895;SDS011;4484;48.928;10.066;2023-04-29T07:55:43;3.33;;;1.77;;
8895;SDS011;4484;48.928;10.066;2023-04-29T07:58:11;2.17;;;1.97;;
8895;SDS011;4484;48.928;10.066;2023-04-29T08:00:38;3.33;;;2.10;;
8895;SDS011;4484;48.928;10.066;2023-04-29T08:03:05;2.83;;;2.10;;
8895;SDS011;4484;48.928;10.066;2023-04-29T08:05:32;1.87;;;1.63;;
8895;SDS011;4484;48.928;10.066;2023-04-29T08:07:59;2.83;;;1.93;;
8895;SDS011;4484;48.928;10.066;2023-04-29T08:10:26;2.33;;;1.90;;
8895;SDS011;4484;48.928;10.066;2023-04-29T08:12:53;2.50;;;2.13;;
8895;SDS011;4484;48.928;10.066;2023-04-29T08:15:20;5.13;;;2.53;;
8895;SDS011;4484;48.928;10.066;2023-04-29T08:17:47;2.97;;;2.63;;
8895;SDS011;4484;48.928;10.066;2023-04-29T08:20:14;4.40;;;2.70;;
8895;SDS011;4484;48.928;10.066;2023-04-29T08:22:41;3.50;;;2.30;;
8895;SDS011;4484;48.928;10.066;2023-04-29T08:25:08;2.70;;;1.90;;
8895;SDS011;4484;48.928;10.066;2023-04-29T08:27:35;2.17;;;1.87;;
8895;SDS011;4484;48.928;10.066;2023-04-29T08:30:02;2.50;;;1.80;;
8895;SDS011;4484;48.928;10.066;2023-04-29T08:32:29;2.13;;;1.93;;
8895;SDS011;4484;48.928;10.066;2023-04-29T08:34:57;2.20;;;1.80;;
8895;SDS011;4484;48.928;10.066;2023-04-29T08:37:25;3.37;;;1.90;;
8895;SDS011;4484;48.928;10.066;2023-04-29T08:39:52;2.97;;;1.87;;
8895;SDS011;4484;48.928;10.066;2023-04-29T08:42:20;3.00;;;2.03;;
8895;SDS011;4484;48.928;10.066;2023-04-29T08:45:03;2.50;;;1.90;;
8895;SDS011;4484;48.928;10.066;2023-04-29T08:47:31;1.77;;;1.60;;
8895;SDS011;4484;48.928;10.066;2023-04-29T08:50:02;3.23;;;2.53;;
8895;SDS011;4484;48.928;10.066;2023-04-29T08:52:31;2.50;;;2.17;;
8895;SDS011;4484;48.928;10.066;2023-04-29T08:54:58;2.93;;;1.90;;
8895;SDS011;4484;48.928;10.066;2023-04-29T08:57:28;2.33;;;1.93;;
8895;SDS011;4484;48.928;10.066;2023-04-29T09:00:05;2.90;;;2.30;;
8895;SDS011;4484;48.928;10.066;2023-04-29T09:02:46;2.60;;;1.90;;
8895;SDS011;4484;48.928;10.066;2023-04-29T09:05:16;2.00;;;1.90;;
8895;SDS011;4484;48.928;10.066;2023-04-29T09:07:43;2.50;;;1.97;;
8895;SDS011;4484;48.928;10.066;2023-04-29T09:10:11;1.87;;;1.73;;
8895;SDS011;4484;48.928;10.066;2023-04-29T09:12:40;2.70;;;2.20;;
8895;SDS011;4484;48.928;10.066;2023-04-29T09:15:07;2.30;;;2.10;;
8895;SDS011;4484;48.928;10.066;2023-04-29T09:22:51;2.70;;;2.20;;
8895;SDS011;4484;48.928;10.066;2023-04-29T09:25:25;3.03;;;2.30;;
8895;SDS011;4484;48.928;10.066;2023-04-29T09:27:53;2.03;;;1.93;;
8895;SDS011;4484;48.928;10.066;2023-04-29T09:30:21;2.53;;;2.33;;
8895;SDS011;4484;48.928;10.066;2023-04-29T09:33:07;2.90;;;1.90;;
8895;SDS011;4484;48.928;10.066;2023-04-29T09:35:35;1.90;;;1.70;;
8895;SDS011;4484;48.928;10.066;2023-04-29T09:38:09;2.80;;;1.80;;
8895;SDS011;4484;48.928;10.066;2023-04-29T09:40:40;2.60;;;2.00;;
8895;SDS011;4484;48.928;10.066;2023-04-29T09:43:24;2.23;;;2.03;;
8895;SDS011;4484;48.928;10.066;2023-04-29T09:45:51;2.63;;;1.63;;
8895;SDS011;4484;48.928;10.066;2023-04-29T09:48:18;2.50;;;1.60;;
8895;SDS011;4484;48.928;10.066;2023-04-29T09:50:57;2.10;;;1.60;;
8895;SDS011;4484;48.928;10.066;2023-04-29T09:53:27;2.27;;;1.50;;
8895;SDS011;4484;48.928;10.066;2023-04-29T09:55:57;1.50;;;1.40;;
8895;SDS011;4484;48.928;10.066;2023-04-29T09:58:26;1.60;;;1.50;;
8895;SDS011;4484;48.928;10.066;2023-04-29T10:01:02;1.80;;;1.70;;
8895;SDS011;4484;48.928;10.066;2023-04-29T10:03:31;2.27;;;1.50;;
8895;SDS011;4484;48.928;10.066;2023-04-29T10:06:00;1.90;;;1.40;;
8895;SDS011;4484;48.928;10.066;2023-04-29T10:08:28;1.20;;;1.10;;
8895;SDS011;4484;48.928;10.066;2023-04-29T10:11:00;3.50;;;1.47;;
8895;SDS011;4484;48.928;10.066;2023-04-29T10:13:28;1.50;;;1.30;;
8895;SDS011;4484;48.928;10.066;2023-04-29T10:16:00;1.47;;;1.33;;
8895;SDS011;4484;48.928;10.066;2023-04-29T10:18:50;3.00;;;1.53;;
8895;SDS011;4484;48.928;10.066;2023-04-29T10:21:29;1.40;;;1.30;;
8895;SDS011;4484;48.928;10.066;2023-04-29T10:23:57;2.77;;;1.30;;
8895;SDS011;4484;48.928;10.066;2023-04-29T10:26:25;1.40;;;1.30;;
8895;SDS011;4484;48.928;10.066;2023-04-29T10:28:54;1.43;;;1.23;;
8895;SDS011;4484;48.928;10.066;2023-04-29T10:31:24;1.00;;;1.00;;
8895;SDS011;4484;48.928;10.066;2023-04-29T10:33:56;3.10;;;1.50;;
8895;SDS011;4484;48.928;10.066;2023-04-29T10:36:24;1.57;;;1.47;;
8895;SDS011;4484;48.928;10.066;2023-04-29T10:38:53;1.50;;;1.40;;
8895;SDS011;4484;48.928;10.066;2023-04-29T10:41:25;1.20;;;1.10;;
8895;SDS011;4484;48.928;10.066;2023-04-29T10:43:54;1.57;;;1.37;;
8895;SDS011;4484;48.928;10.066;2023-04-29T10:46:22;1.53;;;1.27;;
8895;SDS011;4484;48.928;10.066;2023-04-29T10:48:51;3.93;;;1.50;;
8895;SDS011;4484;48.928;10.066;2023-04-29T10:51:34;1.50;;;1.40;;
8895;SDS011;4484;48.928;10.066;2023-04-29T10:54:08;2.30;;;1.40;;
8895;SDS011;4484;48.928;10.066;2023-04-29T10:56:48;1.40;;;1.10;;
8895;SDS011;4484;48.928;10.066;2023-04-29T10:59:20;1.73;;;1.33;;
8895;SDS011;4484;48.928;10.066;2023-04-29T11:01:48;1.40;;;1.30;;
8895;SDS011;4484;48.928;10.066;2023-04-29T11:04:17;2.53;;;1.23;;
8895;SDS011;4484;48.928;10.066;2023-04-29T11:06:55;1.47;;;1.30;;
8895;SDS011;4484;48.928;10.066;2023-04-29T11:09:28;2.03;;;1.10;;
8895;SDS011;4484;48.928;10.066;2023-04-29T11:17:06;2.83;;;1.40;;
8895;SDS011;4484;48.928;10.066;2023-04-29T11:19:45;2.50;;;1.30;;
8895;SDS011;4484;48.928;10.066;2023-04-29T11:24:51;2.10;;;1.13;;
8895;SDS011;4484;48.928;10.066;2023-04-29T11:27:24;1.40;;;1.30;;
8895;SDS011;4484;48.928;10.066;2023-04-29T11:30:01;1.93;;;1.40;;
8895;SDS011;4484;48.928;10.066;2023-04-29T11:32:31;1.47;;;1.37;;
8895;SDS011;4484;48.928;10.066;2023-04-29T11:35:10;1.43;;;1.33;;
8895;SDS011;4484;48.928;10.066;2023-04-29T11:37:39;1.40;;;1.30;;
8895;SDS011;4484;48.928;10.066;2023-04-29T11:40:07;2.43;;;1.33;;
8895;SDS011;4484;48.928;10.066;2023-04-29T11:42:34;1.60;;;1.50;;
8895;SDS011;4484;48.928;10.066;2023-04-29T11:45:06;2.03;;;1.67;;
8895;SDS011;4484;48.928;10.066;2023-04-29T11:47:33;2.17;;;1.07;;
8895;SDS011;4484;48.928;10.066;2023-04-29T11:50:06;1.93;;;1.60;;
8895;SDS011;4484;48.928;10.066;2023-04-29T11:52:35;1.30;;;1.20;;
8895;SDS011;4484;48.928;10.066;2023-04-29T11:55:04;1.30;;;1.20;;
8895;SDS011;4484;48.928;10.066;2023-04-29T11:57:33;3.70;;;1.50;;
8895;SDS011;4484;48.928;10.066;2023-04-29T12:00:01;1.63;;;1.30;;
8895;SDS011;4484;48.928;10.066;2023-04-29T12:02:33;1.40;;;1.10;;
8895;SDS011;4484;48.928;10.066;2023-04-29T12:05:07;2.80;;;1.70;;
8895;SDS011;4484;48.928;10.066;2023-04-29T12:07:34;1.80;;;1.70;;
8895;SDS011;4484;48.928;10.066;2023-04-29T12:10:02;1.40;;;1.30;;
8895;SDS011;4484;48.928;10.066;2023-04-29T12:12:33;2.27;;;1.40;;
8895;SDS011;4484;48.928;10.066;2023-04-29T12:15:02;1.33;;;1.23;;
8895;SDS011;4484;48.928;10.066;2023-04-29T12:17:30;2.10;;;1.40;;
8895;SDS011;4484;48.928;10.066;2023-04-29T12:19:57;1.53;;;1.40;;
8895;SDS011;4484;48.928;10.066;2023-04-29T12:22:30;1.10;;;1.10;;
8895;SDS011;4484;48.928;10.066;2023-04-29T12:24:58;1.37;;;1.17;;
8895;SDS011;4484;48.928;10.066;2023-04-29T12:27:25;1.40;;;1.30;;
8895;SDS011;4484;48.928;10.066;2023-04-29T12:29:52;1.70;;;1.60;;
8895;SDS011;4484;48.928;10.066;2023-04-29T12:32:22;3.60;;;1.70;;
8895;SDS011;4484;48.928;10.066;2023-04-29T12:34:50;2.03;;;1.90;;
8895;SDS011;4484;48.928;10.066;2023-04-29T12:37:18;4.23;;;1.77;;
8895;SDS011;4484;48.928;10.066;2023-04-29T12:39:48;1.97;;;1.87;;
8895;SDS011;4484;48.928;10.066;2023-04-29T12:42:16;3.50;;;2.00;;
8895;SDS011;4484;48.928;10.066;2023-04-29T12:44:45;2.63;;;2.27;;
8895;SDS011;4484;48.928;10.066;2023-04-29T12:47:13;2.50;;;2.00;;
8895;SDS011;4484;48.928;10.066;2023-04-29T12:49:44;2.47;;;2.27;;
8895;SDS011;4484;48.928;10.066;2023-04-29T12:52:13;3.50;;;2.90;;
8895;SDS011;4484;48.928;10.066;2023-04-29T12:54:40;3.37;;;2.60;;
8895;SDS011;4484;48.928;10.066;2023-04-29T12:57:09;4.17;;;2.87;;
8895;SDS011;4484;48.928;10.066;2023-04-29T12:59:37;5.53;;;4.37;;
8895;SDS011;4484;48.928;10.066;2023-04-29T13:02:05;4.03;;;3.63;;
8895;SDS011;4484;48.928;10.066;2023-04-29T13:04:32;5.33;;;3.67;;
8895;SDS011;4484;48.928;10.066;2023-04-29T13:06:59;4.27;;;3.80;;
8895;SDS011;4484;48.928;10.066;2023-04-29T13:09:26;4.47;;;3.67;;
8895;SDS011;4484;48.928;10.066;2023-04-29T13:11:53;4.30;;;3.90;;
8895;SDS011;4484;48.928;10.066;2023-04-29T13:14:20;4.23;;;3.80;;
8895;SDS011;4484;48.928;10.066;2023-04-29T13:16:47;5.60;;;4.47;;
8895;SDS011;4484;48.928;10.066;2023-04-29T13:19:14;4.27;;;3.87;;
8895;SDS011;4484;48.928;10.066;2023-04-29T13:22:01;3.97;;;3.57;;
8895;SDS011;4484;48.928;10.066;2023-04-29T13:24:28;4.67;;;3.80;;
8895;SDS011;4484;48.928;10.066;2023-04-29T13:26:55;3.60;;;3.30;;
8895;SDS011;4484;48.928;10.066;2023-04-29T13:29:23;4.10;;;3.60;;
8895;SDS011;4484;48.928;10.066;2023-04-29T13:31:50;3.70;;;3.40;;
8895;SDS011;4484;48.928;10.066;2023-04-29T13:34:17;5.07;;;3.63;;
8895;SDS011;4484;48.928;10.066;2023-04-29T13:36:44;3.70;;;3.40;;
8895;SDS011;4484;48.928;10.066;2023-04-29T13:39:10;3.90;;;3.50;;
8895;SDS011;4484;48.928;10.066;2023-04-29T13:41:40;4.23;;;3.83;;
8895;SDS011;4484;48.928;10.066;2023-04-29T13:44:11;7.00;;;4.27;;
8895;SDS011;4484;48.928;10.066;2023-04-29T13:46:41;3.50;;;3.20;;
8895;SDS011;4484;48.928;10.066;2023-04-29T13:49:09;4.30;;;3.90;;
8895;SDS011;4484;48.928;10.066;2023-04-29T13:51:56;4.30;;;3.90;;
8895;SDS011;4484;48.928;10.066;2023-04-29T13:54:26;5.67;;;4.77;;
8895;SDS011;4484;48.928;10.066;2023-04-29T13:57:12;4.83;;;4.33;;
8895;SDS011;4484;48.928;10.066;2023-04-29T13:59:59;4.77;;;4.10;;
8895;SDS011;4484;48.928;10.066;2023-04-29T14:02:36;4.67;;;4.00;;
8895;SDS011;4484;48.928;10.066;2023-04-29T14:05:04;5.10;;;4.60;;
8895;SDS011;4484;48.928;10.066;2023-04-29T14:07:33;5.00;;;4.50;;
8895;SDS011;4484;48.928;10.066;2023-04-29T14:09:59;7.27;;;4.93;;
8895;SDS011;4484;48.928;10.066;2023-04-29T14:12:27;5.17;;;4.67;;
8895;SDS011;4484;48.928;10.066;2023-04-29T14:14:54;5.63;;;4.60;;
8895;SDS011;4484;48.928;10.066;2023-04-29T14:17:22;6.43;;;4.83;;
8895;SDS011;4484;48.928;10.066;2023-04-29T14:19:49;4.80;;;4.17;;
8895;SDS011;4484;48.928;10.066;2023-04-29T14:22:16;5.20;;;4.70;;
8895;SDS011;4484;48.928;10.066;2023-04-29T14:24:43;5.53;;;4.80;;
8895;SDS011;4484;48.928;10.066;2023-04-29T14:27:09;6.23;;;4.57;;
8895;SDS011;4484;48.928;10.066;2023-04-29T14:29:36;4.60;;;4.07;;
8895;SDS011;4484;48.928;10.066;2023-04-29T14:32:03;4.73;;;4.27;;
8895;SDS011;4484;48.928;10.066;2023-04-29T14:34:32;5.17;;;3.50;;
8895;SDS011;4484;48.928;10.066;2023-04-29T14:36:58;4.30;;;3.60;;
8895;SDS011;4484;48.928;10.066;2023-04-29T14:39:25;4.10;;;3.10;;
8895;SDS011;4484;48.928;10.066;2023-04-29T14:41:52;6.10;;;4.10;;
8895;SDS011;4484;48.928;10.066;2023-04-29T14:44:19;8.90;;;3.23;;
8895;SDS011;4484;48.928;10.066;2023-04-29T14:46:46;4.47;;;3.87;;
8895;SDS011;4484;48.928;10.066;2023-04-29T14:49:13;3.80;;;2.97;;
8895;SDS011;4484;48.928;10.066;2023-04-29T14:51:39;5.63;;;3.80;;
8895;SDS011;4484;48.928;10.066;2023-04-29T14:54:07;6.63;;;3.80;;
8895;SDS011;4484;48.928;10.066;2023-04-29T14:56:34;3.60;;;3.30;;
8895;SDS011;4484;48.928;10.066;2023-04-29T14:59:03;4.23;;;3.53;;
8895;SDS011;4484;48.928;10.066;2023-04-29T15:01:29;5.73;;;3.97;;
8895;SDS011;4484;48.928;10.066;2023-04-29T15:03:57;4.30;;;3.90;;
8895;SDS011;4484;48.928;10.066;2023-04-29T15:06:24;4.17;;;3.07;;
8895;SDS011;4484;48.928;10.066;2023-04-29T15:08:52;4.77;;;3.37;;
8895;SDS011;4484;48.928;10.066;2023-04-29T15:11:19;5.00;;;3.40;;
8895;SDS011;4484;48.928;10.066;2023-04-29T15:13:46;4.60;;;3.30;;
8895;SDS011;4484;48.928;10.066;2023-04-29T15:16:13;4.63;;;3.43;;
8895;SDS011;4484;48.928;10.066;2023-04-29T15:18:40;3.50;;;2.77;;
8895;SDS011;4484;48.928;10.066;2023-04-29T15:21:11;3.33;;;2.50;;
8895;SDS011;4484;48.928;10.066;2023-04-29T15:23:37;4.33;;;2.70;;
8895;SDS011;4484;48.928;10.066;2023-04-29T15:26:04;2.83;;;2.57;;
8895;SDS011;4484;48.928;10.066;2023-04-29T15:28:32;3.90;;;3.23;;
8895;SDS011;4484;48.928;10.066;2023-04-29T15:30:59;5.30;;;3.40;;
8895;SDS011;4484;48.928;10.066;2023-04-29T15:33:28;4.83;;;3.70;;
8895;SDS011;4484;48.928;10.066;2023-04-29T15:35:55;3.57;;;3.07;;
8895;SDS011;4484;48.928;10.066;2023-04-29T15:38:23;3.70;;;3.07;;
8895;SDS011;4484;48.928;10.066;2023-04-29T15:40:49;4.37;;;3.27;;
8895;SDS011;4484;48.928;10.066;2023-04-29T15:43:16;5.07;;;3.30;;